Time;durP1;ratioP1;P1;durP2;ratioP2;P2;SDS_P1;SDS_P2;PMS_P1;PMS_P2;Temp;Humidity;BMP_temperature;BMP_pressure;BME280_temperature;BME280_humidity;BME280_pressure;Samples;Min_cycle;Max_cycle;Signal;HPM_P1;HPM_P2
2022/10/22 00:01:55;;;;;;;2.28;1.30;;;13.30;99.90;;;;;;5041484;28;20045;-73
2022/10/22 00:04:21;;;;;;;3.05;1.48;;;13.30;99.90;;;;;;5039114;28;20044;-73
2022/10/22 00:06:46;;;;;;;2.88;1.50;;;13.30;99.90;;;;;;5037885;28;20048;-73
2022/10/22 00:09:13;;;;;;;2.67;1.25;;;13.30;99.90;;;;;;5039755;28;20053;-73
2022/10/22 00:11:39;;;;;;;11.05;2.08;;;13.30;99.90;;;;;;5056254;28;20048;-73
2022/10/22 00:14:05;;;;;;;2.80;1.42;;;13.30;99.90;;;;;;5038405;28;20032;-73
2022/10/22 00:16:30;;;;;;;2.35;1.27;;;13.20;99.90;;;;;;5041119;28;20090;-72
2022/10/22 00:18:56;;;;;;;2.88;1.30;;;13.20;99.90;;;;;;5035738;28;20052;-73
2022/10/22 00:21:22;;;;;;;3.40;1.48;;;13.20;99.90;;;;;;5042844;28;20087;-73
2022/10/22 00:23:48;;;;;;;5.85;1.60;;;13.20;99.90;;;;;;5035114;28;20040;-72
2022/10/22 00:26:13;;;;;;;2.63;1.42;;;13.20;99.90;;;;;;5041354;28;20035;-73
2022/10/22 00:28:39;;;;;;;2.10;1.05;;;13.20;99.90;;;;;;5037474;28;20103;-73
2022/10/22 00:31:05;;;;;;;2.85;1.30;;;13.20;99.90;;;;;;5023154;28;20047;-72
2022/10/22 00:33:31;;;;;;;2.70;1.40;;;13.20;99.90;;;;;;5038295;28;20045;-73
2022/10/22 00:35:57;;;;;;;3.35;1.63;;;13.10;99.90;;;;;;5037537;28;20050;-73
2022/10/22 00:38:23;;;;;;;4.47;1.60;;;13.10;99.90;;;;;;5037440;28;20033;-73
2022/10/22 00:40:49;;;;;;;2.83;1.42;;;13.10;99.90;;;;;;5041193;28;20547;-73
2022/10/22 00:43:16;;;;;;;3.30;1.50;;;13.20;99.90;;;;;;5040890;28;20068;-73
2022/10/22 00:45:42;;;;;;;2.70;1.30;;;13.10;99.90;;;;;;5041381;28;20130;-73
2022/10/22 00:48:12;;;;;;;2.72;1.35;;;13.10;99.90;;;;;;5040790;28;20076;-72
2022/10/22 00:50:55;;;;;;;3.25;1.70;;;13.10;99.90;;;;;;5038031;28;20044;-72
2022/10/22 00:53:45;;;;;;;3.08;1.65;;;13.10;99.90;;;;;;5055261;28;20080;-73
2022/10/22 00:56:11;;;;;;;2.63;1.48;;;13.10;99.90;;;;;;5022826;28;20087;-73
2022/10/22 00:58:42;;;;;;;3.08;1.70;;;13.10;99.90;;;;;;5038127;28;20048;-72
2022/10/22 01:01:13;;;;;;;2.30;1.27;;;13.00;99.90;;;;;;5040858;28;20058;-73
2022/10/22 01:03:39;;;;;;;2.53;1.48;;;13.10;99.90;;;;;;5054915;28;20486;-73
2022/10/22 01:06:05;;;;;;;5.85;1.80;;;13.00;99.90;;;;;;5038577;28;20044;-73
2022/10/22 01:08:45;;;;;;;2.78;1.77;;;13.00;99.90;;;;;;5040502;28;20517;-72
2022/10/22 01:11:53;;;;;;;3.78;1.30;;;13.00;99.90;;;;;;5050127;28;20041;-72
2022/10/22 01:14:35;;;;;;;3.03;1.52;;;13.00;99.90;;;;;;5040034;28;20498;-72
2022/10/22 01:17:08;;;;;;;5.10;1.83;;;13.00;99.90;;;;;;5038787;28;20033;-72
2022/10/22 01:20:03;;;;;;;4.85;2.08;;;13.00;99.90;;;;;;5039422;28;20122;-72
2022/10/22 01:22:42;;;;;;;2.55;1.40;;;13.00;99.90;;;;;;5055205;28;20157;-72
2022/10/22 01:25:35;;;;;;;4.13;1.77;;;13.00;99.90;;;;;;5034930;28;20103;-73
2022/10/22 01:28:28;;;;;;;3.33;1.58;;;13.00;99.90;;;;;;5042012;28;20056;-72
2022/10/22 01:30:57;;;;;;;3.75;2.17;;;13.00;99.90;;;;;;5052602;28;20134;-72
2022/10/22 01:33:25;;;;;;;2.72;1.52;;;13.00;99.90;;;;;;5041643;28;20161;-73
2022/10/22 01:35:52;;;;;;;3.58;1.85;;;13.00;99.90;;;;;;5038560;28;20608;-72
2022/10/22 01:38:21;;;;;;;4.05;1.88;;;13.00;99.90;;;;;;5057738;28;20251;-72
2022/10/22 01:40:47;;;;;;;4.57;2.28;;;13.00;99.90;;;;;;5036295;28;20041;-73
2022/10/22 01:43:14;;;;;;;3.15;2.00;;;13.00;99.90;;;;;;5050056;28;20114;-73
2022/10/22 01:45:50;;;;;;;2.97;1.65;;;13.00;99.90;;;;;;5056454;28;20041;-73
2022/10/22 01:48:18;;;;;;;3.15;1.77;;;13.00;99.90;;;;;;5039350;28;20486;-73
2022/10/22 01:50:59;;;;;;;4.18;2.45;;;13.00;99.90;;;;;;5037950;28;20048;-73
2022/10/22 01:54:00;;;;;;;3.03;1.90;;;13.00;99.90;;;;;;5038120;28;20437;-72
2022/10/22 01:56:35;;;;;;;3.13;2.00;;;13.00;99.90;;;;;;5018491;28;20053;-73
2022/10/22 01:59:14;;;;;;;5.20;1.93;;;13.00;99.90;;;;;;5033957;28;20577;-73
2022/10/22 02:01:45;;;;;;;5.68;2.28;;;13.00;99.90;;;;;;5038655;28;20699;-73
2022/10/22 02:04:28;;;;;;;3.88;2.20;;;13.00;99.90;;;;;;5013686;28;20055;-72
2022/10/22 02:06:58;;;;;;;6.00;1.90;;;13.00;99.90;;;;;;5032829;28;20534;-72
2022/10/22 02:09:26;;;;;;;4.78;1.67;;;13.00;99.90;;;;;;5050611;28;20214;-73
2022/10/22 02:11:53;;;;;;;4.63;2.10;;;13.00;99.90;;;;;;5039794;28;20033;-73
2022/10/22 02:14:19;;;;;;;3.10;1.98;;;13.00;99.90;;;;;;5050019;28;20471;-73
2022/10/22 02:16:48;;;;;;;5.28;2.30;;;12.90;99.90;;;;;;5023565;28;20045;-72
2022/10/22 02:19:25;;;;;;;3.50;1.70;;;12.90;99.90;;;;;;5052479;28;20115;-72
2022/10/22 02:21:51;;;;;;;6.47;2.40;;;12.90;99.90;;;;;;5036702;28;21455;-73
2022/10/22 02:24:17;;;;;;;4.47;2.20;;;13.00;99.90;;;;;;5040588;28;20125;-73
2022/10/22 02:27:13;;;;;;;4.13;2.38;;;12.90;99.90;;;;;;5040101;28;20581;-72
2022/10/22 02:29:50;;;;;;;4.82;2.55;;;12.90;99.90;;;;;;5038157;28;21117;-72
2022/10/22 02:32:20;;;;;;;7.05;2.00;;;12.90;99.90;;;;;;5038898;28;20044;-73
2022/10/22 02:34:48;;;;;;;5.05;2.17;;;12.90;99.90;;;;;;5035466;28;20403;-73
2022/10/22 02:37:15;;;;;;;3.60;1.85;;;12.90;99.90;;;;;;5039360;28;20037;-73
2022/10/22 02:39:41;;;;;;;7.13;2.80;;;12.90;99.90;;;;;;5017512;28;20087;-73
2022/10/22 02:42:08;;;;;;;3.25;1.83;;;12.90;99.90;;;;;;5036375;28;20053;-73
2022/10/22 02:44:34;;;;;;;3.60;1.75;;;12.90;99.90;;;;;;5038315;28;20375;-72
2022/10/22 02:46:59;;;;;;;6.20;2.33;;;12.90;99.90;;;;;;5037317;28;20052;-72
2022/10/22 02:49:25;;;;;;;3.92;2.30;;;12.90;99.90;;;;;;5038189;28;20048;-73
2022/10/22 02:51:51;;;;;;;4.03;2.22;;;12.90;99.90;;;;;;5019238;28;20048;-73
2022/10/22 02:54:17;;;;;;;5.97;2.60;;;12.90;99.90;;;;;;5020885;28;20048;-72
2022/10/22 02:56:42;;;;;;;3.38;1.83;;;12.90;99.90;;;;;;5037182;28;20025;-73
2022/10/22 02:59:08;;;;;;;3.60;1.85;;;12.90;99.90;;;;;;5034317;28;20040;-72
2022/10/22 03:01:33;;;;;;;4.13;2.20;;;12.80;99.90;;;;;;5039522;28;20040;-73
2022/10/22 03:03:59;;;;;;;5.65;2.17;;;12.80;99.90;;;;;;5038926;28;20037;-72
2022/10/22 03:06:25;;;;;;;2.67;1.92;;;12.80;99.90;;;;;;5033571;28;20037;-72
2022/10/22 03:08:50;;;;;;;3.80;2.25;;;12.80;99.90;;;;;;5024357;28;20098;-72
2022/10/22 03:11:16;;;;;;;4.43;2.00;;;12.80;99.90;;;;;;5018511;28;20033;-73
2022/10/22 03:13:41;;;;;;;5.78;2.08;;;12.80;99.90;;;;;;5019158;28;20130;-73
2022/10/22 03:16:07;;;;;;;4.28;2.10;;;12.80;99.90;;;;;;5038435;28;20073;-73
2022/10/22 03:18:33;;;;;;;4.45;2.30;;;12.80;99.90;;;;;;5038837;28;20069;-72
2022/10/22 03:21:34;;;;;;;5.15;2.22;;;12.70;99.90;;;;;;5040542;28;20560;-72
2022/10/22 03:24:03;;;;;;;4.22;1.90;;;12.70;99.90;;;;;;5039975;28;20466;-72
2022/10/22 03:26:29;;;;;;;4.05;2.15;;;12.70;99.90;;;;;;5042379;28;20040;-73
2022/10/22 03:28:55;;;;;;;4.18;1.73;;;12.70;99.90;;;;;;5043003;28;20044;-72
2022/10/22 03:31:20;;;;;;;3.78;2.08;;;12.70;99.90;;;;;;5054235;28;20041;-73
2022/10/22 03:33:46;;;;;;;4.18;2.55;;;12.70;99.90;;;;;;5040396;28;20502;-73
2022/10/22 03:36:12;;;;;;;3.28;2.22;;;12.70;99.90;;;;;;5041255;28;20052;-73
2022/10/22 03:38:39;;;;;;;4.18;2.13;;;12.70;99.90;;;;;;5041506;28;20032;-73
2022/10/22 03:41:05;;;;;;;3.72;1.92;;;12.70;99.90;;;;;;5058880;28;20562;-73
2022/10/22 03:43:32;;;;;;;4.60;2.50;;;12.70;99.90;;;;;;5044417;28;20119;-72
2022/10/22 03:45:58;;;;;;;4.88;2.35;;;12.70;99.90;;;;;;5039366;28;20040;-73
2022/10/22 03:48:23;;;;;;;5.82;2.38;;;12.70;99.90;;;;;;5042747;28;20048;-73
2022/10/22 03:50:49;;;;;;;4.38;2.35;;;12.70;99.90;;;;;;5040180;28;20055;-73
2022/10/22 03:53:14;;;;;;;4.78;2.05;;;12.70;99.90;;;;;;5022551;28;20050;-73
2022/10/22 03:55:40;;;;;;;7.10;2.78;;;12.70;99.90;;;;;;5039597;28;20041;-73
2022/10/22 03:58:06;;;;;;;4.53;2.47;;;12.70;99.90;;;;;;5034939;28;20035;-72
2022/10/22 04:00:33;;;;;;;3.42;2.10;;;12.70;99.90;;;;;;5058088;28;20036;-72
2022/10/22 04:02:59;;;;;;;6.10;2.83;;;12.70;99.90;;;;;;5035604;28;20060;-72
2022/10/22 04:05:24;;;;;;;4.22;2.10;;;12.70;99.90;;;;;;5041021;28;20049;-73
2022/10/22 04:07:50;;;;;;;5.05;2.60;;;12.70;99.90;;;;;;5035691;28;20057;-73
2022/10/22 04:10:16;;;;;;;4.80;2.90;;;12.70;99.90;;;;;;5039018;28;20052;-73
2022/10/22 04:12:41;;;;;;;4.28;2.60;;;12.70;99.90;;;;;;5040385;28;20171;-72
2022/10/22 04:15:08;;;;;;;4.57;2.53;;;12.70;99.90;;;;;;5039798;28;20040;-72
2022/10/22 04:17:37;;;;;;;3.97;2.35;;;12.70;99.90;;;;;;5054120;28;20232;-73
2022/10/22 04:20:03;;;;;;;6.20;2.53;;;12.60;99.90;;;;;;5040355;28;20155;-73
2022/10/22 04:22:31;;;;;;;4.90;2.40;;;12.70;99.90;;;;;;5039620;28;20277;-73
2022/10/22 04:24:57;;;;;;;5.20;2.60;;;12.60;99.90;;;;;;5020750;28;20411;-72
2022/10/22 04:27:22;;;;;;;4.90;2.60;;;12.70;99.90;;;;;;5039012;28;20048;-72
2022/10/22 04:29:48;;;;;;;4.25;2.58;;;12.60;99.90;;;;;;5040154;28;20516;-72
2022/10/22 04:32:14;;;;;;;4.75;2.83;;;12.60;99.90;;;;;;5037435;28;20697;-72
2022/10/22 04:34:39;;;;;;;4.95;2.78;;;12.60;99.90;;;;;;5039027;28;20037;-72
2022/10/22 04:37:05;;;;;;;4.65;2.55;;;12.60;99.90;;;;;;5054984;28;20076;-73
2022/10/22 04:39:30;;;;;;;5.60;3.15;;;12.60;99.90;;;;;;5036268;28;20048;-73
2022/10/22 04:41:56;;;;;;;5.68;3.25;;;12.60;99.90;;;;;;5036885;28;20041;-73
2022/10/22 04:44:22;;;;;;;4.53;2.55;;;12.60;99.90;;;;;;5037958;28;20590;-72
2022/10/22 04:46:47;;;;;;;4.60;2.75;;;12.60;99.90;;;;;;5037808;28;20092;-73
2022/10/22 04:49:13;;;;;;;8.02;2.10;;;12.60;99.90;;;;;;5042110;28;20043;-72
2022/10/22 04:51:39;;;;;;;4.40;2.63;;;12.60;99.90;;;;;;5040866;28;20032;-73
2022/10/22 04:54:04;;;;;;;4.72;2.40;;;12.60;99.90;;;;;;5024270;28;20132;-73
2022/10/22 04:56:31;;;;;;;4.78;2.85;;;12.60;99.90;;;;;;5039712;28;20398;-72
2022/10/22 04:59:05;;;;;;;5.60;3.13;;;12.60;99.90;;;;;;5040171;28;20375;-73
2022/10/22 05:01:33;;;;;;;5.57;2.90;;;12.60;99.90;;;;;;5039798;28;20033;-72
2022/10/22 05:04:01;;;;;;;4.88;2.80;;;12.60;99.90;;;;;;5036193;28;20120;-72
2022/10/22 05:06:28;;;;;;;4.95;2.20;;;12.60;99.90;;;;;;5040433;28;20149;-73
2022/10/22 05:09:00;;;;;;;4.63;2.20;;;12.50;99.90;;;;;;5018694;28;20430;-73
2022/10/22 05:11:32;;;;;;;5.93;2.88;;;12.50;99.90;;;;;;5038971;28;20032;-72
2022/10/22 05:13:59;;;;;;;8.15;2.95;;;12.50;99.90;;;;;;5036052;28;20086;-72
2022/10/22 05:16:27;;;;;;;5.10;2.55;;;12.50;99.90;;;;;;5040335;28;20105;-72
2022/10/22 05:18:53;;;;;;;4.78;2.63;;;12.50;99.90;;;;;;5043202;28;20039;-72
2022/10/22 05:21:20;;;;;;;5.50;2.88;;;12.50;99.90;;;;;;5037720;28;20664;-72
2022/10/22 05:23:47;;;;;;;4.35;2.35;;;12.40;99.90;;;;;;5038441;28;20076;-72
2022/10/22 05:26:17;;;;;;;5.43;2.55;;;12.50;99.90;;;;;;5040180;28;20103;-73
2022/10/22 05:28:43;;;;;;;4.25;2.60;;;12.50;99.90;;;;;;5039015;28;20044;-73
2022/10/22 05:31:10;;;;;;;5.70;2.67;;;12.50;99.90;;;;;;5036209;28;20481;-73
2022/10/22 05:33:36;;;;;;;5.78;2.80;;;12.50;99.90;;;;;;5038707;28;20059;-72
2022/10/22 05:36:04;;;;;;;5.28;2.67;;;12.50;99.90;;;;;;5055950;28;20037;-73
2022/10/22 05:38:31;;;;;;;4.35;2.13;;;12.50;99.90;;;;;;5041606;28;20040;-73
2022/10/22 05:41:02;;;;;;;4.18;2.40;;;12.50;99.90;;;;;;5036494;28;20483;-72
2022/10/22 05:43:28;;;;;;;5.15;2.65;;;12.50;99.90;;;;;;5036734;28;20049;-72
2022/10/22 05:45:53;;;;;;;4.07;2.53;;;12.50;99.90;;;;;;5036936;28;20119;-72
2022/10/22 05:48:19;;;;;;;4.30;2.15;;;12.50;99.90;;;;;;5021236;28;20036;-73
2022/10/22 05:50:49;;;;;;;5.72;2.67;;;12.50;99.90;;;;;;5040601;28;20041;-73
2022/10/22 05:53:19;;;;;;;3.92;2.38;;;12.50;99.90;;;;;;5033117;28;20402;-73
2022/10/22 05:55:45;;;;;;;5.55;2.67;;;12.50;99.90;;;;;;5041334;28;20064;-72
2022/10/22 05:58:11;;;;;;;4.75;2.25;;;12.50;99.90;;;;;;5037528;28;20128;-72
2022/10/22 06:00:37;;;;;;;6.28;2.50;;;12.60;99.90;;;;;;5038626;28;20446;-73
2022/10/22 06:03:03;;;;;;;4.95;3.10;;;12.50;99.90;;;;;;5039694;28;20037;-73
2022/10/22 06:05:28;;;;;;;5.18;2.47;;;12.50;99.90;;;;;;5036539;28;20509;-73
2022/10/22 06:07:56;;;;;;;3.50;1.98;;;12.50;99.90;;;;;;5036380;28;20047;-73
2022/10/22 06:10:22;;;;;;;5.80;2.45;;;12.60;99.90;;;;;;5037136;28;20040;-73
2022/10/22 06:12:48;;;;;;;8.93;2.75;;;12.50;99.90;;;;;;5039394;28;20444;-73
2022/10/22 06:15:16;;;;;;;6.20;2.63;;;12.50;99.90;;;;;;5039118;28;20493;-73
2022/10/22 06:17:43;;;;;;;4.63;2.38;;;12.60;99.90;;;;;;5024793;28;20125;-72
2022/10/22 06:20:09;;;;;;;4.38;2.15;;;12.60;99.90;;;;;;5037392;28;20045;-73
2022/10/22 06:22:35;;;;;;;5.47;2.60;;;12.60;99.90;;;;;;5021899;28;20498;-72
2022/10/22 06:25:01;;;;;;;4.35;2.45;;;12.60;99.90;;;;;;5038728;28;20049;-73
2022/10/22 06:27:26;;;;;;;5.05;2.35;;;12.60;99.90;;;;;;5051318;28;20048;-73
2022/10/22 06:29:52;;;;;;;4.75;2.75;;;12.60;99.90;;;;;;5038037;28;20072;-72
2022/10/22 06:32:18;;;;;;;5.63;2.35;;;12.60;99.90;;;;;;5036726;28;20425;-73
2022/10/22 06:34:43;;;;;;;4.78;2.50;;;12.60;99.90;;;;;;5038963;28;20394;-73
2022/10/22 06:37:09;;;;;;;5.55;2.60;;;12.60;99.90;;;;;;5038722;28;20040;-73
2022/10/22 06:39:35;;;;;;;4.55;2.03;;;12.60;99.90;;;;;;5035668;28;20041;-72
2022/10/22 06:42:00;;;;;;;7.20;2.92;;;12.60;99.90;;;;;;5035691;28;20055;-73
2022/10/22 06:44:26;;;;;;;5.75;2.28;;;12.60;99.90;;;;;;5034679;28;20668;-72
2022/10/22 06:46:52;;;;;;;5.10;2.58;;;12.60;99.90;;;;;;5040394;28;20103;-73
2022/10/22 06:49:19;;;;;;;4.90;2.30;;;12.70;99.90;;;;;;5036560;28;20044;-73
2022/10/22 06:51:49;;;;;;;4.82;2.53;;;12.70;99.90;;;;;;5031602;28;20295;-73
2022/10/22 06:54:14;;;;;;;8.40;2.28;;;12.70;99.90;;;;;;5026427;28;20112;-72
2022/10/22 06:56:40;;;;;;;4.25;2.35;;;12.70;99.90;;;;;;5036338;28;20559;-72
2022/10/22 06:59:06;;;;;;;3.42;1.75;;;12.70;99.90;;;;;;5039785;28;20037;-72
2022/10/22 07:01:33;;;;;;;2.60;1.80;;;12.70;99.90;;;;;;5018520;28;20041;-72
2022/10/22 07:03:59;;;;;;;5.78;2.00;;;12.70;99.90;;;;;;5035851;28;20045;-72
2022/10/22 07:06:26;;;;;;;2.30;1.38;;;12.80;99.90;;;;;;5039763;28;20657;-72
2022/10/22 07:08:54;;;;;;;4.15;2.03;;;12.70;99.90;;;;;;5042133;28;20060;-73
2022/10/22 07:11:25;;;;;;;6.25;1.73;;;12.80;99.90;;;;;;5038471;28;20072;-72
2022/10/22 07:13:54;;;;;;;4.50;2.00;;;12.80;99.90;;;;;;5022719;28;20029;-72
2022/10/22 07:16:19;;;;;;;3.55;1.95;;;12.80;99.90;;;;;;5039237;28;20044;-72
2022/10/22 07:18:46;;;;;;;3.28;1.85;;;12.90;99.90;;;;;;5033227;28;20037;-71
2022/10/22 07:21:13;;;;;;;4.93;2.30;;;12.90;99.90;;;;;;5037879;28;20500;-72
2022/10/22 07:23:39;;;;;;;4.55;2.10;;;12.90;99.90;;;;;;5037969;28;20560;-72
2022/10/22 07:26:06;;;;;;;3.72;2.10;;;12.90;99.90;;;;;;5035547;28;20807;-72
2022/10/22 07:28:33;;;;;;;3.78;1.80;;;12.90;99.90;;;;;;5037610;28;20052;-73
2022/10/22 07:30:59;;;;;;;3.38;2.10;;;12.90;99.90;;;;;;5035292;28;20603;-73
2022/10/22 07:33:25;;;;;;;3.72;1.92;;;12.90;99.90;;;;;;5037708;28;20036;-73
2022/10/22 07:35:59;;;;;;;4.80;2.15;;;13.00;99.90;;;;;;5037986;28;20033;-72
2022/10/22 07:38:26;;;;;;;6.15;1.95;;;13.00;99.90;;;;;;5038041;28;20036;-72
2022/10/22 07:40:51;;;;;;;4.45;1.92;;;13.00;99.90;;;;;;5034253;28;20491;-72
2022/10/22 07:43:17;;;;;;;3.50;1.92;;;13.00;99.90;;;;;;5041203;28;20091;-72
2022/10/22 07:45:43;;;;;;;3.83;1.77;;;13.10;99.90;;;;;;5041265;28;20083;-72
2022/10/22 07:48:08;;;;;;;3.90;2.10;;;13.10;99.90;;;;;;5030315;28;20045;-72
2022/10/22 07:50:34;;;;;;;5.32;2.40;;;13.20;99.90;;;;;;5041242;28;20037;-72
2022/10/22 07:52:59;;;;;;;3.45;2.05;;;13.20;99.90;;;;;;5041002;28;20077;-73
2022/10/22 07:55:25;;;;;;;7.07;1.80;;;13.20;99.90;;;;;;5056005;28;20033;-72
2022/10/22 07:57:50;;;;;;;6.07;1.85;;;13.20;99.90;;;;;;5022051;28;20037;-72
2022/10/22 08:00:17;;;;;;;2.67;1.63;;;13.30;99.90;;;;;;5040910;28;20037;-72
2022/10/22 08:02:43;;;;;;;4.10;1.75;;;13.30;99.90;;;;;;5042129;28;20036;-72
2022/10/22 08:05:08;;;;;;;5.65;2.08;;;13.30;99.90;;;;;;5040676;28;20513;-72
2022/10/22 08:07:34;;;;;;;4.00;2.03;;;13.30;99.90;;;;;;5040552;28;20080;-72
2022/10/22 08:09:59;;;;;;;9.65;2.53;;;13.30;99.90;;;;;;5040129;28;20044;-72
2022/10/22 08:12:25;;;;;;;6.20;2.13;;;13.30;99.90;;;;;;5041892;28;20483;-72
2022/10/22 08:14:51;;;;;;;4.20;1.60;;;13.30;99.90;;;;;;5039270;28;20063;-72
2022/10/22 08:17:16;;;;;;;3.40;1.80;;;13.30;99.90;;;;;;5029407;28;20042;-72
2022/10/22 08:19:42;;;;;;;3.58;1.83;;;13.30;99.90;;;;;;5025342;28;20041;-72
2022/10/22 08:22:08;;;;;;;2.92;1.60;;;13.40;99.90;;;;;;5040339;28;20532;-73
2022/10/22 08:24:33;;;;;;;4.30;2.05;;;13.40;99.90;;;;;;5039251;28;20041;-72
2022/10/22 08:26:59;;;;;;;3.05;1.67;;;13.40;99.90;;;;;;5042432;28;20053;-72
2022/10/22 08:29:25;;;;;;;3.00;1.58;;;13.40;99.90;;;;;;5044107;28;20041;-73
2022/10/22 08:31:52;;;;;;;5.13;1.80;;;13.50;99.90;;;;;;5029027;28;20037;-72
2022/10/22 08:34:19;;;;;;;4.47;1.58;;;13.50;99.90;;;;;;5047137;28;20037;-73
2022/10/22 08:36:45;;;;;;;2.65;1.60;;;13.50;99.90;;;;;;5040047;28;20135;-72
2022/10/22 08:39:10;;;;;;;3.35;1.77;;;13.50;99.90;;;;;;5042068;28;20032;-72
2022/10/22 08:42:09;;;;;;;3.75;1.80;;;13.60;99.90;;;;;;5052205;28;20044;-72
2022/10/22 08:45:01;;;;;;;2.20;1.27;;;13.60;99.90;;;;;;5043414;28;20041;-72
2022/10/22 08:47:41;;;;;;;6.40;1.77;;;13.70;99.90;;;;;;5026669;28;20040;-72
2022/10/22 08:50:13;;;;;;;3.30;1.63;;;13.70;99.90;;;;;;5039575;28;20124;-72
2022/10/22 08:52:43;;;;;;;5.78;1.35;;;13.80;99.90;;;;;;5065494;28;20530;-72
2022/10/22 08:55:13;;;;;;;8.18;1.38;;;13.80;99.90;;;;;;5048024;28;20116;-72
2022/10/22 08:57:44;;;;;;;2.65;1.50;;;13.90;99.90;;;;;;5039205;28;20033;-72
2022/10/22 09:00:16;;;;;;;2.72;1.42;;;13.90;99.90;;;;;;5045089;28;20048;-72
2022/10/22 09:02:47;;;;;;;3.05;1.58;;;13.90;99.90;;;;;;5045364;28;20082;-72
2022/10/22 09:05:48;;;;;;;5.18;1.55;;;14.00;99.90;;;;;;5042713;28;20038;-72
2022/10/22 09:08:17;;;;;;;2.00;1.08;;;14.10;99.90;;;;;;4978626;28;20052;-72
2022/10/22 09:10:48;;;;;;;3.90;1.63;;;14.10;99.90;;;;;;5042094;28;20049;-72
2022/10/22 09:13:19;;;;;;;4.20;1.35;;;14.10;99.90;;;;;;5037342;28;20083;-72
2022/10/22 09:15:50;;;;;;;2.95;1.40;;;14.20;99.90;;;;;;5038634;28;20037;-73
2022/10/22 09:18:25;;;;;;;3.75;1.45;;;14.20;99.90;;;;;;5039084;28;20037;-73
2022/10/22 09:21:04;;;;;;;2.58;1.02;;;14.20;99.90;;;;;;5024047;28;20052;-72
2022/10/22 09:24:09;;;;;;;3.88;1.58;;;14.20;99.90;;;;;;5042240;28;20044;-73
2022/10/22 09:26:37;;;;;;;5.50;1.73;;;14.30;99.90;;;;;;5037812;28;20501;-73
2022/10/22 09:29:04;;;;;;;5.07;1.20;;;14.30;99.90;;;;;;5048188;28;20482;-72
2022/10/22 09:31:30;;;;;;;1.73;0.95;;;14.40;99.90;;;;;;5037415;28;20037;-72
2022/10/22 09:33:58;;;;;;;2.38;1.00;;;14.40;99.90;;;;;;5031780;28;20033;-73
2022/10/22 09:36:27;;;;;;;1.73;0.88;;;14.50;99.90;;;;;;5040539;28;20048;-73
2022/10/22 09:38:53;;;;;;;3.70;1.08;;;14.50;99.90;;;;;;5042660;28;20036;-73
2022/10/22 09:41:22;;;;;;;5.68;1.60;;;14.60;99.90;;;;;;5037722;28;20312;-73
2022/10/22 09:43:48;;;;;;;3.03;1.23;;;14.60;99.90;;;;;;5042068;28;20032;-72
2022/10/22 09:46:19;;;;;;;2.00;1.13;;;14.60;99.90;;;;;;5041730;28;20091;-72
2022/10/22 09:49:05;;;;;;;2.85;1.50;;;14.60;99.90;;;;;;5040453;28;20055;-73
2022/10/22 09:51:50;;;;;;;;;;;14.70;99.90;;;;;;5038097;28;20051;-73
2022/10/22 09:54:20;;;;;;;4.97;1.35;;;14.70;99.90;;;;;;5042182;28;19916;-73
2022/10/22 09:56:57;;;;;;;2.60;1.10;;;14.70;99.90;;;;;;5038166;28;20040;-73
2022/10/22 09:59:31;;;;;;;1.58;1.08;;;14.80;99.90;;;;;;5016776;28;20045;-73
2022/10/22 10:02:00;;;;;;;2.03;1.15;;;14.70;99.90;;;;;;5041866;28;20241;-73
2022/10/22 10:04:26;;;;;;;2.42;1.15;;;14.70;99.90;;;;;;5021089;28;21289;-73
2022/10/22 10:06:55;;;;;;;3.08;1.00;;;14.80;99.90;;;;;;5039526;28;20529;-73
2022/10/22 10:09:23;;;;;;;2.50;1.13;;;14.80;99.90;;;;;;5049115;28;20057;-72
2022/10/22 10:12:07;;;;;;;3.58;1.40;;;14.80;99.90;;;;;;5043175;28;20094;-73
2022/10/22 10:15:04;;;;;;;3.78;1.40;;;14.80;99.90;;;;;;5041264;28;20119;-73
2022/10/22 10:17:38;;;;;;;;;;;14.80;99.90;;;;;;5029141;28;20545;-73
2022/10/22 10:20:39;;;;;;;2.25;1.20;;;14.80;99.90;;;;;;5024451;28;22146;-73
2022/10/22 10:23:27;;;;;;;2.55;1.23;;;14.90;99.90;;;;;;5041752;28;20577;-72
2022/10/22 10:26:11;;;;;;;3.85;1.45;;;14.90;99.90;;;;;;5040766;28;20077;-73
2022/10/22 10:29:03;;;;;;;2.72;1.50;;;14.90;99.90;;;;;;5058304;28;20537;-73
2022/10/22 10:32:06;;;;;;;4.95;1.38;;;14.90;99.90;;;;;;5039395;28;20055;-74
2022/10/22 10:34:51;;;;;;;4.35;1.85;;;15.00;99.90;;;;;;5041078;28;20486;-74
2022/10/22 10:37:25;;;;;;;3.40;1.50;;;15.00;99.90;;;;;;5036970;28;20063;-73
2022/10/22 10:40:07;;;;;;;2.67;0.70;;;15.00;99.90;;;;;;5041370;28;20041;-73
2022/10/22 10:42:47;;;;;;;2.95;1.35;;;15.10;99.90;;;;;;5035392;28;20044;-73
2022/10/22 10:45:45;;;;;;;2.55;1.33;;;15.10;99.90;;;;;;5038645;28;20131;-73
2022/10/22 10:48:32;;;;;;;5.35;1.70;;;15.10;99.90;;;;;;5034515;28;20127;-73
2022/10/22 10:51:19;;;;;;;9.20;1.90;;;15.20;99.90;;;;;;5033597;28;20048;-73
2022/10/22 10:53:50;;;;;;;3.15;1.60;;;15.20;99.90;;;;;;5030207;28;21135;-74
2022/10/22 10:56:34;;;;;;;5.00;1.30;;;15.20;99.90;;;;;;5046268;28;20048;-73
2022/10/22 10:59:41;;;;;;;2.42;1.33;;;15.30;99.90;;;;;;5036636;28;20043;-73
2022/10/22 11:02:22;;;;;;;2.63;1.38;;;15.30;99.90;;;;;;5031532;28;20033;-74
2022/10/22 11:05:25;;;;;;;6.10;1.38;;;15.30;99.90;;;;;;5013265;28;20453;-74
2022/10/22 11:08:17;;;;;;;4.63;1.65;;;15.30;99.90;;;;;;5017382;28;20049;-74
2022/10/22 11:10:49;;;;;;;2.28;1.48;;;15.20;99.90;;;;;;5030107;28;20554;-73
2022/10/22 11:13:35;;;;;;;5.00;1.33;;;15.20;99.90;;;;;;5050742;28;20041;-73
2022/10/22 11:16:25;;;;;;;3.63;1.45;;;15.20;99.90;;;;;;5030296;28;20120;-73
2022/10/22 11:19:03;;;;;;;3.08;1.80;;;15.20;99.90;;;;;;5025791;28;20040;-73
2022/10/22 11:21:31;;;;;;;4.60;1.50;;;15.20;99.90;;;;;;5027560;28;20053;-74
2022/10/22 11:24:17;;;;;;;4.88;1.27;;;15.20;99.90;;;;;;5037165;28;20041;-74
2022/10/22 11:26:56;;;;;;;4.43;1.52;;;15.20;99.90;;;;;;5013026;28;20091;-74
2022/10/22 11:29:31;;;;;;;4.57;1.80;;;15.20;99.90;;;;;;5048121;28;20049;-74
2022/10/22 11:31:58;;;;;;;5.10;1.90;;;15.20;99.90;;;;;;5028892;28;20487;-74
2022/10/22 11:34:33;;;;;;;2.22;1.33;;;15.20;99.90;;;;;;5012324;28;20530;-73
2022/10/22 11:36:59;;;;;;;2.75;1.92;;;15.20;99.90;;;;;;5048516;28;20094;-73
2022/10/22 11:39:44;;;;;;;2.67;1.38;;;15.20;99.90;;;;;;5028961;28;20518;-73
2022/10/22 11:42:17;;;;;;;7.43;1.80;;;15.20;99.90;;;;;;5035607;28;20048;-73
2022/10/22 11:44:59;;;;;;;5.00;1.67;;;15.20;99.90;;;;;;5035112;28;20063;-73
2022/10/22 11:47:46;;;;;;;4.05;1.70;;;15.20;99.90;;;;;;5020256;28;20119;-73
2022/10/22 11:50:40;;;;;;;9.68;1.85;;;15.20;99.90;;;;;;5034877;28;20092;-73
2022/10/22 11:53:29;;;;;;;2.58;1.42;;;15.30;99.90;;;;;;5032612;28;20037;-73
2022/10/22 11:56:02;;;;;;;3.60;1.25;;;15.30;99.90;;;;;;5036324;28;20113;-73
2022/10/22 11:58:29;;;;;;;5.10;1.50;;;15.30;99.90;;;;;;5031901;28;20091;-73
2022/10/22 12:00:56;;;;;;;3.97;1.80;;;15.30;99.90;;;;;;5033463;28;20083;-73
2022/10/22 12:03:31;;;;;;;2.47;1.50;;;15.30;99.90;;;;;;5018186;28;20044;-73
2022/10/22 12:06:12;;;;;;;4.88;1.92;;;15.40;99.90;;;;;;5034807;28;20099;-73
2022/10/22 12:08:42;;;;;;;3.80;1.63;;;15.50;99.90;;;;;;5038158;28;20131;-73
2022/10/22 12:11:10;;;;;;;3.58;1.83;;;15.50;99.90;;;;;;5032544;28;20117;-73
2022/10/22 12:14:00;;;;;;;6.38;2.10;;;15.50;99.90;;;;;;5037576;28;20495;-73
2022/10/22 12:16:38;;;;;;;3.60;1.63;;;15.60;99.90;;;;;;5032740;28;20397;-73
2022/10/22 12:19:11;;;;;;;3.05;1.58;;;15.60;99.90;;;;;;5016226;28;20091;-73
2022/10/22 12:21:38;;;;;;;3.88;2.00;;;15.60;99.90;;;;;;5048829;28;20127;-73
2022/10/22 12:24:06;;;;;;;3.03;1.63;;;15.60;99.90;;;;;;5022145;28;20029;-73
2022/10/22 12:26:35;;;;;;;7.03;2.03;;;15.50;99.90;;;;;;5038188;28;20071;-73
2022/10/22 12:29:08;;;;;;;5.82;1.60;;;15.50;99.90;;;;;;5038226;28;20037;-73
2022/10/22 12:31:37;;;;;;;3.50;1.67;;;15.50;99.90;;;;;;5032515;28;20041;-73
2022/10/22 12:34:04;;;;;;;2.35;1.73;;;15.40;99.90;;;;;;5034398;28;20210;-73
2022/10/22 12:36:35;;;;;;;5.60;1.80;;;15.40;99.90;;;;;;5021248;28;20425;-73
2022/10/22 12:39:12;;;;;;;36.13;16.83;;;15.40;99.90;;;;;;5029172;28;20041;-73
2022/10/22 12:41:39;;;;;;;8.27;5.30;;;15.40;99.90;;;;;;5020009;28;20119;-73
2022/10/22 12:44:05;;;;;;;5.47;2.80;;;15.30;99.90;;;;;;5053767;28;20044;-73
2022/10/22 12:46:33;;;;;;;20.45;10.27;;;15.30;99.90;;;;;;5037555;28;20041;-73
2022/10/22 12:49:02;;;;;;;4.53;3.30;;;15.30;99.90;;;;;;5040083;28;20599;-73
2022/10/22 12:51:28;;;;;;;4.38;2.70;;;15.20;99.90;;;;;;5035589;28;20029;-73
2022/10/22 12:53:56;;;;;;;5.00;3.00;;;15.20;99.90;;;;;;5033226;28;22439;-73
2022/10/22 12:56:26;;;;;;;5.70;4.90;;;15.20;99.90;;;;;;5034834;28;20064;-73
2022/10/22 12:59:01;;;;;;;5.47;3.13;;;15.20;99.90;;;;;;5038192;28;20029;-73
2022/10/22 13:01:32;;;;;;;2.08;1.45;;;15.20;99.90;;;;;;5053449;28;20466;-73
2022/10/22 13:04:19;;;;;;;3.83;2.47;;;15.20;99.90;;;;;;5036081;28;20049;-74
2022/10/22 13:07:13;;;;;;;5.47;2.45;;;15.20;99.90;;;;;;5015606;28;20045;-73
2022/10/22 13:09:55;;;;;;;4.05;2.90;;;15.10;99.90;;;;;;5011569;28;20090;-73